Fort Smith Regional Airport
KFSM : now visible

Airfield :











YOU CAN JOIN US ON...

 
LOGIN :

Register | Disclaimer

   EN    FR    IT 

 









Legend :    VFR   Marginal VFR   IFR   Intensive IFR   Very Intensive IFR
Visi :
Ceiling :
>= 8 km
>= 3000ft
5 to 8 km
1000 to 3000 ft
1500m to 5 km
500 to 1000 ft
800 to 1500m
200 to 500 ft
< 800m
< 200 ft
Symbols :   Thunderstorms  Fog  Heavy snow  Heavy precipitations  Wind > 20 kt






- Airport Elevation : 469 ft
- IATA code : FSM


KFSM - Fort Smith Regional

CURRENT METAR :
  • 210153Z 00000KT 10SM CLR 01/M03 A3051 RMK AO2 SLP335 T00111033 $

EXPIRED METARs :
  • 210053Z 00000KT 10SM CLR 03/M04 A3050 RMK AO2 SLP333 T00281039 $
  • 202353Z 26004KT 10SM CLR 03/M04 A3049 RMK AO2 SLP329 T00331039 10078 20033 56008 $

TAF KFSM
Valid from the 21 at 00:00 until the 22 at 00:00 UTC


202324Z 2100/2124 VRB03KT P6SM SKC
FM211200 08007KT P6SM SKC



MET'MAP, your aeronautical weather chart ! - Copyright ORBIFLY December 2007 - Disclaimer

ORBIFLY MET'MAP TEAM :

Programming & Development : Alexandra Zaïnal
Concept & original design : Baudouin d'Aumeries
Assistance for programming : Marc-Olivier Méhu
Technical & hardware support : Manuel Goepfert

Contact : metmap@orbifly.com




SOURCES & CREDITS :

   NOAA       Earth
Advisory